Time;durP1;ratioP1;P1;durP2;ratioP2;P2;SDS_P1;SDS_P2;PMS_P1;PMS_P2;Temp;Humidity;BMP_temperature;BMP_pressure;BME280_temperature;BME280_humidity;BME280_pressure;Samples;Min_cycle;Max_cycle;Signal;HPM_P1;HPM_P2
2021/01/21 00:01:04;;;;;;;5.40;3.03;;;1.10;86.50;;;;;;5031483;28;20749;-80
2021/01/21 00:03:42;;;;;;;3.37;2.80;;;1.10;87.30;;;;;;5034648;28;20208;-80
2021/01/21 00:06:09;;;;;;;6.63;2.93;;;1.20;86.60;;;;;;5039250;28;20707;-80
2021/01/21 00:08:35;;;;;;;4.87;3.20;;;1.30;84.50;;;;;;5027807;28;20194;-80
2021/01/21 00:11:01;;;;;;;4.33;2.83;;;1.20;84.30;;;;;;5023303;28;20230;-80
2021/01/21 00:13:28;;;;;;;4.43;3.00;;;1.30;85.00;;;;;;5024368;28;20292;-80
2021/01/21 00:15:54;;;;;;;5.67;3.20;;;1.30;85.10;;;;;;5025763;28;20315;-80
2021/01/21 00:18:21;;;;;;;4.60;3.10;;;1.30;85.10;;;;;;5026689;28;20269;-80
2021/01/21 00:20:48;;;;;;;5.47;2.70;;;1.30;84.10;;;;;;5024693;28;20242;-79
2021/01/21 00:23:14;;;;;;;5.80;3.17;;;1.30;84.40;;;;;;5030563;28;20206;-80
2021/01/21 00:25:40;;;;;;;4.77;3.10;;;1.30;84.90;;;;;;5032285;28;20225;-81
2021/01/21 00:28:07;;;;;;;4.40;3.10;;;1.30;85.50;;;;;;5034219;28;20202;-83
2021/01/21 00:30:33;;;;;;;6.20;3.10;;;1.20;86.40;;;;;;5029715;28;20321;-80
2021/01/21 00:32:59;;;;;;;4.27;2.83;;;1.40;82.50;;;;;;5036234;28;20202;-80
2021/01/21 00:35:26;;;;;;;5.10;3.10;;;1.20;83.20;;;;;;5033814;28;20236;-81
2021/01/21 00:37:53;;;;;;;4.93;3.00;;;1.10;84.70;;;;;;5029174;28;20203;-80
2021/01/21 00:40:19;;;;;;;5.43;2.90;;;1.10;86.50;;;;;;5030217;28;20237;-80
2021/01/21 00:42:46;;;;;;;4.37;3.10;;;1.00;86.40;;;;;;5027779;28;20212;-80
2021/01/21 00:45:12;;;;;;;3.90;2.83;;;1.00;87.50;;;;;;5035768;28;20575;-80
2021/01/21 00:47:39;;;;;;;4.60;3.10;;;1.00;87.00;;;;;;5038058;28;20203;-80
2021/01/21 00:50:06;;;;;;;3.87;2.83;;;1.10;86.50;;;;;;5041443;28;20259;-81
2021/01/21 00:52:32;;;;;;;5.10;3.10;;;1.30;86.70;;;;;;5043059;28;20198;-82
2021/01/21 00:54:59;;;;;;;4.03;2.70;;;1.40;85.40;;;;;;5044504;28;20340;-82
2021/01/21 00:57:32;;;;;;;3.80;2.60;;;1.50;84.90;;;;;;5042018;28;20645;-79
2021/01/21 00:59:58;;;;;;;4.73;3.03;;;1.50;84.40;;;;;;5038142;28;20232;-81
2021/01/21 01:02:25;;;;;;;4.80;2.90;;;1.50;85.30;;;;;;5038766;28;20294;-82
2021/01/21 01:04:51;;;;;;;6.67;3.10;;;1.40;84.70;;;;;;5028670;28;20260;-82
2021/01/21 01:07:17;;;;;;;5.37;3.60;;;1.50;84.70;;;;;;5036083;28;20280;-82
2021/01/21 01:10:30;;;;;;;4.13;3.00;;;1.50;85.50;;;;;;5040501;28;20241;-82
2021/01/21 01:12:57;;;;;;;5.43;2.70;;;1.50;85.60;;;;;;5013795;28;20196;-79
2021/01/21 01:15:26;;;;;;;4.93;3.10;;;1.50;84.50;;;;;;5015931;28;20387;-79
2021/01/21 01:17:53;;;;;;;3.87;2.80;;;1.60;83.50;;;;;;5014764;28;20229;-80
2021/01/21 01:20:19;;;;;;;3.67;2.63;;;1.60;84.20;;;;;;5039517;28;20344;-81
2021/01/21 01:22:50;;;;;;;3.93;2.83;;;1.50;85.40;;;;;;5044382;28;20260;-83
2021/01/21 01:25:16;;;;;;;4.47;2.80;;;1.50;84.90;;;;;;5062759;28;20237;-82
2021/01/21 01:27:42;;;;;;;3.60;2.80;;;1.50;84.80;;;;;;5040410;28;20200;-81
2021/01/21 01:30:11;;;;;;;3.53;2.80;;;1.50;85.10;;;;;;5038434;28;20314;-82
2021/01/21 01:32:38;;;;;;;5.20;2.93;;;1.50;85.60;;;;;;5040945;28;20208;-82
2021/01/21 01:35:05;;;;;;;4.73;2.63;;;1.50;85.90;;;;;;5041723;28;20239;-83
2021/01/21 01:37:31;;;;;;;3.20;2.40;;;1.50;84.40;;;;;;5036085;28;20205;-83
2021/01/21 01:39:58;;;;;;;2.90;2.40;;;1.50;84.50;;;;;;5045420;28;20391;-81
2021/01/21 01:42:24;;;;;;;3.97;2.23;;;1.50;84.40;;;;;;5037594;28;20194;-81
2021/01/21 01:44:51;;;;;;;4.93;2.57;;;1.60;84.20;;;;;;5027290;28;20245;-81
2021/01/21 01:47:20;;;;;;;3.17;2.40;;;1.50;83.70;;;;;;5038615;28;20229;-81
2021/01/21 01:49:54;;;;;;;3.57;2.50;;;1.60;84.10;;;;;;5038024;28;20617;-82
2021/01/21 01:52:21;;;;;;;3.20;2.40;;;1.60;84.00;;;;;;5036316;28;20189;-81
2021/01/21 01:54:48;;;;;;;3.10;2.30;;;1.50;85.50;;;;;;5040475;28;20232;-81
2021/01/21 01:57:15;;;;;;;4.23;2.60;;;1.40;84.70;;;;;;5034243;28;20210;-81
2021/01/21 01:59:42;;;;;;;5.60;2.53;;;1.30;86.00;;;;;;5034653;28;20229;-82
2021/01/21 02:02:08;;;;;;;5.07;2.27;;;1.30;85.90;;;;;;5038436;28;20209;-81
2021/01/21 02:04:36;;;;;;;3.43;2.20;;;1.30;86.20;;;;;;5038999;28;20684;-81
2021/01/21 02:07:09;;;;;;;3.10;2.53;;;1.40;85.00;;;;;;5039367;28;20187;-81
2021/01/21 02:09:35;;;;;;;4.67;3.20;;;1.50;85.00;;;;;;5023362;28;20222;-82
2021/01/21 02:12:13;;;;;;;3.77;2.53;;;1.50;83.80;;;;;;5034879;28;20195;-81
2021/01/21 02:14:45;;;;;;;6.53;3.60;;;1.60;84.10;;;;;;5038403;28;20229;-81
2021/01/21 02:17:20;;;;;;;3.90;2.43;;;1.70;84.00;;;;;;5046890;28;20656;-81
2021/01/21 02:20:18;;;;;;;3.87;2.60;;;1.70;84.30;;;;;;5058173;28;20240;-81
2021/01/21 02:23:34;;;;;;;3.50;2.17;;;1.80;83.50;;;;;;5049222;28;20228;-81
2021/01/21 02:26:05;;;;;;;3.03;2.20;;;1.90;83.20;;;;;;5033303;28;20554;-81
2021/01/21 02:29:15;;;;;;;3.63;2.27;;;2.00;81.80;;;;;;5036612;28;20212;-82
2021/01/21 02:32:00;;;;;;;4.13;2.20;;;2.00;81.80;;;;;;5033934;28;20210;-84
2021/01/21 02:34:35;;;;;;;2.73;2.10;;;2.10;81.60;;;;;;5038710;28;20245;-81
2021/01/21 02:37:02;;;;;;;3.30;2.00;;;2.20;80.90;;;;;;5038567;28;20216;-81
2021/01/21 02:39:30;;;;;;;3.87;2.00;;;2.20;82.20;;;;;;5038868;28;20565;-81
2021/01/21 02:41:56;;;;;;;4.13;2.00;;;2.10;82.10;;;;;;5038671;28;20205;-81
2021/01/21 02:44:28;;;;;;;2.93;2.20;;;2.00;83.10;;;;;;5053588;28;20315;-81
2021/01/21 02:46:54;;;;;;;3.93;2.50;;;2.10;82.50;;;;;;5052526;28;20520;-82
2021/01/21 02:49:21;;;;;;;3.60;2.30;;;2.10;81.80;;;;;;5019890;28;20222;-81
2021/01/21 02:52:01;;;;;;;3.30;2.17;;;2.20;82.40;;;;;;5041076;28;20194;-83
2021/01/21 02:54:40;;;;;;;2.37;1.77;;;2.20;82.40;;;;;;5027043;28;20616;-81
2021/01/21 02:57:10;;;;;;;2.73;1.90;;;2.20;82.40;;;;;;5036616;28;20265;-82
2021/01/21 02:59:40;;;;;;;3.17;1.93;;;2.20;83.00;;;;;;5038051;28;20234;-81
2021/01/21 03:02:09;;;;;;;3.00;2.00;;;2.10;83.00;;;;;;5027560;28;20205;-81
2021/01/21 03:04:38;;;;;;;3.00;1.67;;;2.20;83.30;;;;;;5026374;28;20233;-81
2021/01/21 03:07:06;;;;;;;2.50;2.17;;;2.20;81.90;;;;;;5019777;28;20249;-81
2021/01/21 03:09:33;;;;;;;3.60;2.40;;;2.20;82.50;;;;;;5019547;28;20219;-81
2021/01/21 03:12:16;;;;;;;5.43;2.20;;;2.30;82.20;;;;;;5019972;28;20195;-81
2021/01/21 03:14:58;;;;;;;3.00;1.93;;;2.40;81.40;;;;;;5022128;28;20221;-81
2021/01/21 03:17:26;;;;;;;3.60;1.93;;;2.50;81.20;;;;;;5048842;28;20269;-81
2021/01/21 03:19:53;;;;;;;3.87;2.10;;;2.40;81.50;;;;;;5059957;28;20288;-81
2021/01/21 03:22:20;;;;;;;2.30;1.70;;;2.40;82.00;;;;;;5060024;28;20200;-81
2021/01/21 03:28:27;;;;;;;4.07;2.33;;;2.40;80.90;;;;;;5059595;28;20181;-81
2021/01/21 03:30:53;;;;;;;2.93;2.20;;;2.30;82.10;;;;;;5059437;28;20277;-81
2021/01/21 03:33:19;;;;;;;4.07;2.03;;;2.30;82.40;;;;;;5060200;28;20194;-80
2021/01/21 03:36:10;;;;;;;2.60;2.10;;;2.30;82.00;;;;;;5061417;28;20244;-81
2021/01/21 03:38:53;;;;;;;4.50;2.10;;;2.30;81.20;;;;;;5062485;28;20296;-81
2021/01/21 03:41:25;;;;;;;3.23;2.00;;;2.30;81.80;;;;;;5063776;28;20214;-81
2021/01/21 03:43:52;;;;;;;4.50;1.87;;;2.20;83.10;;;;;;5063097;28;20224;-81
2021/01/21 03:46:19;;;;;;;3.27;2.30;;;2.10;83.10;;;;;;5074142;28;20293;-82
2021/01/21 03:49:21;;;;;;;2.30;2.00;;;2.10;82.90;;;;;;5069435;28;20276;-81
2021/01/21 03:51:47;;;;;;;3.63;2.10;;;2.20;81.40;;;;;;5063974;28;20220;-81
2021/01/21 03:54:14;;;;;;;4.17;2.60;;;2.30;81.00;;;;;;5062377;28;20432;-81
2021/01/21 06:30:15;;;;;;;2.83;2.10;;;2.10;86.10;;;;;;5034476;28;20217;-82
2021/01/21 06:32:48;;;;;;;4.00;2.00;;;2.10;86.30;;;;;;5036037;28;20198;-81
2021/01/21 06:38:43;;;;;;;3.10;2.10;;;2.20;85.10;;;;;;4995962;28;20641;-81
2021/01/21 06:41:15;;;;;;;3.10;2.23;;;2.20;86.30;;;;;;5032434;28;20214;-82
2021/01/21 06:43:42;;;;;;;3.03;2.30;;;2.20;85.70;;;;;;5030312;28;20199;-81
2021/01/21 06:46:14;;;;;;;2.97;2.03;;;2.20;85.10;;;;;;5020340;28;20226;-83
2021/01/21 06:48:40;;;;;;;4.33;2.37;;;2.20;85.10;;;;;;5029691;28;20292;-85
2021/01/21 06:51:08;;;;;;;5.03;2.30;;;2.10;86.00;;;;;;5030662;28;20625;-84
2021/01/21 06:53:44;;;;;;;6.03;2.53;;;2.20;87.20;;;;;;5033679;28;20187;-84
2021/01/21 06:56:11;;;;;;;3.57;2.50;;;2.10;87.10;;;;;;5034023;28;20236;-83
2021/01/21 07:01:45;;;;;;;4.83;3.10;;;2.10;87.10;;;;;;5411850;22;20285;-85
2021/01/21 07:04:28;;;;;;;4.07;3.20;;;2.10;87.10;;;;;;5046307;28;20635;-83
2021/01/21 07:07:03;;;;;;;5.27;3.40;;;2.20;86.00;;;;;;5058470;28;20314;-84
2021/01/21 07:13:13;;;;;;;4.37;3.10;;;2.40;84.80;;;;;;5058192;28;20257;-85
2021/01/21 07:15:46;;;;;;;4.20;3.03;;;2.40;85.50;;;;;;5048116;28;20313;-85
2021/01/21 07:18:16;;;;;;;4.87;2.40;;;2.50;85.00;;;;;;5046459;28;20289;-85
2021/01/21 07:21:16;;;;;;;3.97;2.70;;;2.60;84.70;;;;;;5054519;28;20316;-86
2021/01/21 07:23:48;;;;;;;5.17;3.47;;;2.60;84.10;;;;;;5047108;28;20293;-85
2021/01/21 07:26:37;;;;;;;3.57;2.47;;;2.70;83.50;;;;;;5047937;28;20234;-85
2021/01/21 07:29:08;;;;;;;6.03;3.13;;;2.80;82.60;;;;;;5051986;28;20284;-87
2021/01/21 07:32:06;;;;;;;3.13;2.83;;;2.90;82.20;;;;;;5062653;28;20202;-86
2021/01/21 07:34:55;;;;;;;3.70;2.73;;;3.00;82.10;;;;;;5052340;28;20253;-84
2021/01/21 07:37:27;;;;;;;4.53;2.80;;;3.20;82.20;;;;;;5045231;28;20309;-83
2021/01/21 07:40:10;;;;;;;5.87;2.53;;;3.30;81.00;;;;;;5038021;28;20230;-83
2021/01/21 07:42:54;;;;;;;6.83;2.90;;;3.30;80.90;;;;;;5039473;28;20252;-82
2021/01/21 07:45:24;;;;;;;3.63;2.63;;;3.40;81.50;;;;;;5040258;28;20685;-81
2021/01/21 07:47:52;;;;;;;8.33;2.80;;;3.60;81.40;;;;;;5045066;28;20252;-84
2021/01/21 07:50:30;;;;;;;3.37;2.43;;;3.80;80.50;;;;;;5046729;28;20320;-86
2021/01/21 07:52:58;;;;;;;3.57;2.40;;;3.90;79.80;;;;;;5039962;28;20239;-83
2021/01/21 07:55:26;;;;;;;2.50;2.00;;;4.00;78.40;;;;;;5040857;28;20313;-85
2021/01/21 07:57:53;;;;;;;4.70;3.50;;;4.10;79.00;;;;;;5045584;28;20653;-85
2021/01/21 08:00:20;;;;;;;2.90;1.80;;;4.30;78.60;;;;;;5051497;28;20324;-87
2021/01/21 08:02:48;;;;;;;4.03;1.90;;;4.30;77.00;;;;;;5052171;28;20198;-87
2021/01/21 08:05:15;;;;;;;5.27;1.87;;;4.50;76.40;;;;;;5043565;28;20747;-85
2021/01/21 08:07:48;;;;;;;3.57;2.00;;;4.60;75.20;;;;;;5046456;28;20259;-86
2021/01/21 08:10:18;;;;;;;4.10;2.00;;;4.80;74.30;;;;;;5056285;28;20217;-86
2021/01/21 08:12:51;;;;;;;2.77;1.97;;;4.90;73.20;;;;;;5054928;28;20279;-89
2021/01/21 08:15:19;;;;;;;4.53;2.17;;;5.10;70.00;;;;;;5054069;28;20324;-89
2021/01/21 08:17:46;;;;;;;3.67;2.30;;;5.20;70.00;;;;;;5066061;28;20194;-85
2021/01/21 08:20:13;;;;;;;6.63;2.40;;;5.30;70.00;;;;;;5050824;28;20353;-88
2021/01/21 08:22:58;;;;;;;4.50;2.30;;;5.30;70.10;;;;;;5053553;28;20644;-85
2021/01/21 08:25:27;;;;;;;5.03;2.50;;;5.40;70.10;;;;;;5058914;28;20303;-93
2021/01/21 08:27:54;;;;;;;5.63;1.93;;;5.60;67.60;;;;;;5056958;28;20203;-89
2021/01/21 08:30:22;;;;;;;4.33;1.70;;;5.70;66.70;;;;;;5056615;28;20233;-89
2021/01/21 08:33:09;;;;;;;1.80;1.60;;;5.90;61.50;;;;;;5044960;28;20229;-90
2021/01/21 08:35:50;;;;;;;3.47;2.53;;;6.20;57.80;;;;;;5049097;28;20616;-89
2021/01/21 08:38:21;;;;;;;1.87;1.40;;;6.50;56.30;;;;;;5044031;28;20225;-89
2021/01/21 08:40:48;;;;;;;3.27;1.27;;;6.80;53.80;;;;;;5048657;28;20225;-90
2021/01/21 08:43:16;;;;;;;2.00;1.47;;;7.00;50.70;;;;;;5062316;28;20243;-87
2021/01/21 08:45:42;;;;;;;3.33;1.20;;;7.30;50.10;;;;;;5054783;28;20272;-86
2021/01/21 08:48:09;;;;;;;1.20;1.10;;;7.50;48.30;;;;;;5051987;28;20237;-86
2021/01/21 08:50:38;;;;;;;2.63;1.00;;;7.60;48.20;;;;;;5059039;28;20223;-88
2021/01/21 08:53:07;;;;;;;1.13;0.90;;;7.70;46.60;;;;;;5057604;28;20245;-85
2021/01/21 08:55:39;;;;;;;1.83;1.10;;;7.80;46.50;;;;;;5056534;28;20229;-86
2021/01/21 08:58:18;;;;;;;3.50;1.10;;;7.90;46.60;;;;;;5053806;28;20233;-86
2021/01/21 09:01:01;;;;;;;2.30;1.20;;;8.20;46.90;;;;;;5054572;28;20284;-86
2021/01/21 09:03:51;;;;;;;3.75;1.10;;;8.40;45.70;;;;;;5075013;28;20642;-86
2021/01/21 09:06:19;;;;;;;1.60;1.30;;;8.50;44.70;;;;;;5065993;28;20286;-86
2021/01/21 09:08:51;;;;;;;2.15;1.00;;;9.00;43.50;;;;;;5060263;28;20257;-87
2021/01/21 09:11:29;;;;;;;1.77;1.00;;;9.50;40.80;;;;;;5077273;28;20220;-86
2021/01/21 09:14:16;;;;;;;2.65;0.90;;;10.00;38.80;;;;;;5082707;28;20217;-86
2021/01/21 09:17:02;;;;;;;1.38;0.98;;;10.20;37.70;;;;;;5071828;28;20225;-86
2021/01/21 09:19:43;;;;;;;1.15;1.05;;;10.20;36.40;;;;;;5050756;28;20213;-85
2021/01/21 09:23:00;;;;;;;3.30;0.75;;;10.30;36.60;;;;;;5059954;28;20206;-85
2021/01/21 09:25:28;;;;;;;1.85;0.93;;;10.60;35.60;;;;;;5071946;28;20551;-85
2021/01/21 09:27:57;;;;;;;1.75;0.70;;;10.90;34.70;;;;;;5058327;28;20202;-91
2021/01/21 09:30:24;;;;;;;1.92;1.10;;;10.90;34.50;;;;;;5069725;28;20241;-87
2021/01/21 09:32:53;;;;;;;1.60;0.90;;;11.00;33.90;;;;;;5053820;28;20236;-85
2021/01/21 09:35:21;;;;;;;2.65;0.95;;;11.10;32.70;;;;;;5064953;28;20288;-86
2021/01/21 09:37:58;;;;;;;3.25;0.70;;;11.30;32.70;;;;;;5064037;28;20209;-87
2021/01/21 09:47:16;;;;;;;0.70;0.70;;;11.80;32.10;;;;;;5067180;28;20208;-87
2021/01/21 09:49:43;;;;;;;1.10;0.80;;;12.70;30.10;;;;;;5064702;28;20669;-91
2021/01/21 09:52:23;;;;;;;1.15;0.90;;;13.50;28.40;;;;;;5055934;28;20198;-93
2021/01/21 09:54:50;;;;;;;6.80;0.80;;;14.00;27.00;;;;;;5055253;28;20240;-89
2021/01/21 09:57:17;;;;;;;1.20;1.05;;;14.00;27.00;;;;;;5056227;28;20202;-90
2021/01/21 09:59:55;;;;;;;1.95;0.80;;;13.80;27.40;;;;;;5041325;28;20244;-91
2021/01/21 10:02:23;;;;;;;1.75;0.82;;;13.60;28.10;;;;;;5060152;28;20209;-91
2021/01/21 10:04:50;;;;;;;1.17;1.00;;;13.30;30.00;;;;;;5057277;28;20235;-93
2021/01/21 10:07:16;;;;;;;1.75;1.02;;;13.20;29.50;;;;;;5064354;28;20201;-89
2021/01/21 10:10:19;;;;;;;1.73;1.17;;;13.00;29.60;;;;;;5047201;28;20286;-90
2021/01/21 10:12:45;;;;;;;2.28;1.00;;;12.90;30.70;;;;;;5055875;28;20601;-93
2021/01/21 10:15:14;;;;;;;4.03;1.10;;;12.70;30.60;;;;;;5059751;28;20218;-88
2021/01/21 10:18:18;;;;;;;1.48;1.02;;;12.70;30.60;;;;;;5065017;28;20197;-89
2021/01/21 10:20:55;;;;;;;2.92;0.90;;;12.60;29.80;;;;;;5050942;28;20222;-88
2021/01/21 10:27:09;;;;;;;2.40;0.90;;;12.60;30.00;;;;;;5061739;28;20216;-85
2021/01/21 10:29:36;;;;;;;1.27;1.17;;;12.70;29.70;;;;;;5068169;28;20308;-87
2021/01/21 10:32:10;;;;;;;1.17;0.90;;;12.90;30.00;;;;;;5050333;28;20237;-86
2021/01/21 10:35:25;;;;;;;1.23;0.73;;;12.70;30.30;;;;;;5052479;28;20229;-88
2021/01/21 10:37:53;;;;;;;2.33;0.95;;;12.50;30.30;;;;;;5045400;28;20199;-86
2021/01/21 10:40:19;;;;;;;1.98;0.90;;;12.30;31.20;;;;;;5066865;28;20292;-86
2021/01/21 10:42:46;;;;;;;0.90;0.75;;;12.20;30.70;;;;;;5059828;28;20197;-86
2021/01/21 10:45:42;;;;;;;1.60;0.90;;;12.00;31.60;;;;;;5076588;28;20233;-88
2021/01/21 10:48:10;;;;;;;2.15;0.90;;;11.90;30.50;;;;;;5076973;28;20254;-86
2021/01/21 10:50:50;;;;;;;1.15;1.08;;;12.10;30.60;;;;;;5058791;28;20293;-85
2021/01/21 10:53:17;;;;;;;0.82;0.80;;;12.20;31.60;;;;;;5065890;28;20193;-86
2021/01/21 10:55:44;;;;;;;2.28;0.70;;;12.30;30.40;;;;;;5049917;28;20222;-85
2021/01/21 10:58:10;;;;;;;2.70;0.75;;;12.40;30.30;;;;;;5072467;28;20221;-86
2021/01/21 11:00:45;;;;;;;2.90;0.93;;;12.40;30.10;;;;;;5064681;28;20225;-85
2021/01/21 11:03:11;;;;;;;0.93;0.93;;;12.50;29.60;;;;;;5066137;28;20284;-86
2021/01/21 11:05:37;;;;;;;0.93;0.93;;;13.30;29.10;;;;;;5063629;28;20572;-88
2021/01/21 11:08:04;;;;;;;1.95;1.27;;;13.80;26.80;;;;;;5050753;28;20226;-87
2021/01/21 11:10:32;;;;;;;1.33;1.20;;;13.90;27.00;;;;;;5064408;28;20197;-86
2021/01/21 11:12:59;;;;;;;2.35;1.40;;;14.00;27.00;;;;;;5053729;28;20226;-88
2021/01/21 11:15:25;;;;;;;2.30;0.93;;;14.30;27.30;;;;;;5060242;28;20228;-87
2021/01/21 11:17:51;;;;;;;1.08;1.00;;;14.50;27.40;;;;;;5053902;28;20237;-87
2021/01/21 11:20:18;;;;;;;4.05;1.00;;;14.40;27.40;;;;;;5056492;28;20216;-87
2021/01/21 11:22:44;;;;;;;1.02;0.98;;;14.20;27.20;;;;;;5056790;28;20232;-88
2021/01/21 11:25:11;;;;;;;0.95;0.90;;;14.10;27.10;;;;;;5064333;28;20223;-88
2021/01/21 11:27:39;;;;;;;1.05;1.00;;;14.00;27.00;;;;;;5051778;28;20236;-91
2021/01/21 11:30:09;;;;;;;1.95;0.70;;;13.90;26.90;;;;;;5046708;28;20198;-86
2021/01/21 11:32:47;;;;;;;1.10;0.88;;;13.60;26.70;;;;;;5056845;28;20229;-87
2021/01/21 11:35:14;;;;;;;4.22;0.82;;;13.40;28.00;;;;;;5051465;28;20210;-86
2021/01/21 11:37:41;;;;;;;1.33;1.20;;;13.30;27.40;;;;;;5060647;28;20222;-87
2021/01/21 11:40:14;;;;;;;1.02;0.82;;;13.10;28.70;;;;;;5017925;28;20237;-88
2021/01/21 11:42:44;;;;;;;2.55;0.75;;;13.00;28.80;;;;;;5053219;28;20203;-87
2021/01/21 11:45:11;;;;;;;3.47;2.47;;;13.00;29.30;;;;;;5070633;28;20226;-88
2021/01/21 11:47:39;;;;;;;0.80;0.80;;;12.90;29.30;;;;;;5068155;28;20616;-84
2021/01/21 11:50:11;;;;;;;3.15;2.50;;;12.80;29.30;;;;;;5064608;28;20217;-85
2021/01/21 11:52:40;;;;;;;2.78;1.40;;;12.80;30.00;;;;;;5070078;28;20210;-84
2021/01/21 11:55:09;;;;;;;2.58;2.03;;;12.90;30.60;;;;;;5045301;28;20226;-86
2021/01/21 11:57:36;;;;;;;1.55;0.90;;;12.80;30.10;;;;;;5071139;28;20193;-87
2021/01/21 12:00:19;;;;;;;1.08;0.98;;;12.80;30.00;;;;;;5067036;28;20244;-88
2021/01/21 12:02:45;;;;;;;1.20;1.10;;;12.80;31.10;;;;;;5061126;28;20247;-85
2021/01/21 12:05:18;;;;;;;0.68;0.68;;;12.80;29.60;;;;;;5057012;28;20226;-86
2021/01/21 12:07:44;;;;;;;1.70;0.60;;;12.90;30.20;;;;;;5066952;28;20199;-86
2021/01/21 12:10:16;;;;;;;1.10;1.00;;;12.90;28.80;;;;;;5044919;28;20218;-84
2021/01/21 12:12:50;;;;;;;3.03;0.90;;;12.80;30.00;;;;;;5050298;28;20205;-86
2021/01/21 12:15:26;;;;;;;1.45;1.00;;;12.90;29.50;;;;;;5066200;28;20225;-86
2021/01/21 12:18:16;;;;;;;0.70;0.70;;;13.00;29.30;;;;;;5064976;28;20207;-86
2021/01/21 12:21:16;;;;;;;1.65;0.80;;;13.20;29.00;;;;;;5056770;28;20232;-86
2021/01/21 12:23:42;;;;;;;1.15;0.90;;;13.20;28.30;;;;;;5062925;28;20193;-86
2021/01/21 12:26:11;;;;;;;1.33;1.23;;;13.40;28.50;;;;;;5052523;28;20232;-85
2021/01/21 12:28:39;;;;;;;1.23;1.13;;;13.60;28.70;;;;;;5054991;28;20289;-84
2021/01/21 12:31:07;;;;;;;1.48;1.38;;;13.60;28.10;;;;;;5057248;28;20201;-85
2021/01/21 12:33:34;;;;;;;1.15;1.13;;;13.60;26.90;;;;;;5048506;28;20617;-87
2021/01/21 12:36:01;;;;;;;4.55;2.70;;;13.60;27.60;;;;;;5045404;28;20228;-87
2021/01/21 12:38:27;;;;;;;1.10;1.00;;;13.80;26.90;;;;;;5049983;28;20701;-84
2021/01/21 12:40:56;;;;;;;1.10;1.10;;;13.90;27.90;;;;;;5047550;28;20253;-85
2021/01/21 12:43:23;;;;;;;1.35;0.80;;;13.80;26.90;;;;;;5058992;28;20198;-85
2021/01/21 12:45:50;;;;;;;2.38;1.52;;;13.80;26.90;;;;;;5047058;28;20822;-86
2021/01/21 12:48:18;;;;;;;1.23;1.10;;;13.70;26.70;;;;;;5044681;28;20461;-86
2021/01/21 12:50:44;;;;;;;3.10;1.40;;;13.60;26.70;;;;;;5044751;28;20233;-86
2021/01/21 12:53:11;;;;;;;1.60;1.50;;;13.60;28.50;;;;;;5048695;28;20211;-85
2021/01/21 12:55:38;;;;;;;4.57;1.83;;;13.60;30.60;;;;;;5048701;28;20242;-85
2021/01/21 12:58:05;;;;;;;2.00;1.27;;;13.70;29.40;;;;;;5053029;28;20199;-89
2021/01/21 13:00:31;;;;;;;8.15;3.13;;;13.60;28.70;;;;;;5056485;28;20221;-84
2021/01/21 13:02:58;;;;;;;5.95;3.45;;;13.60;28.50;;;;;;5052859;28;20198;-85
2021/01/21 13:05:39;;;;;;;1.02;0.82;;;13.60;28.30;;;;;;5063275;28;20246;-86
2021/01/21 13:08:05;;;;;;;1.00;1.00;;;13.70;26.80;;;;;;5055609;28;20203;-84
2021/01/21 13:10:32;;;;;;;1.30;1.02;;;13.70;26.80;;;;;;5049314;28;20218;-88
2021/01/21 13:12:58;;;;;;;1.83;1.08;;;13.80;26.90;;;;;;5052055;28;20252;-85
2021/01/21 13:15:24;;;;;;;0.80;0.80;;;13.70;26.80;;;;;;5052439;28;20226;-88
2021/01/21 13:17:50;;;;;;;1.75;1.00;;;13.70;27.90;;;;;;5052252;28;20234;-86
2021/01/21 13:20:17;;;;;;;0.90;0.90;;;13.80;26.90;;;;;;5058563;28;20221;-89
2021/01/21 13:22:44;;;;;;;1.15;0.82;;;13.90;28.50;;;;;;5051741;28;20198;-85
2021/01/21 13:25:12;;;;;;;0.98;0.98;;;13.80;28.20;;;;;;5046335;28;20288;-86
2021/01/21 13:27:38;;;;;;;1.25;0.80;;;13.70;26.70;;;;;;5056724;28;20197;-83
2021/01/21 13:30:06;;;;;;;1.60;1.10;;;13.80;28.90;;;;;;5046586;28;20294;-87
2021/01/21 13:32:33;;;;;;;1.65;1.23;;;13.90;28.50;;;;;;5049133;28;20279;-86
2021/01/21 13:34:59;;;;;;;0.80;0.80;;;14.00;28.90;;;;;;5056130;28;20238;-86
2021/01/21 13:37:26;;;;;;;0.88;0.85;;;14.10;27.10;;;;;;5063506;28;20243;-89
2021/01/21 13:39:59;;;;;;;1.23;0.80;;;14.20;27.20;;;;;;5064985;28;20308;-85
2021/01/21 13:42:28;;;;;;;2.10;0.82;;;14.20;27.20;;;;;;5067382;28;20206;-88
2021/01/21 13:44:55;;;;;;;0.90;0.90;;;14.00;30.30;;;;;;5056855;28;20229;-84
2021/01/21 13:47:22;;;;;;;1.48;1.02;;;13.90;29.00;;;;;;5057867;28;20190;-87
2021/01/21 13:49:52;;;;;;;1.55;1.45;;;13.70;28.20;;;;;;5051415;28;20254;-86
2021/01/21 13:52:20;;;;;;;12.77;2.45;;;13.50;30.30;;;;;;5057697;28;20202;-86
2021/01/21 13:54:46;;;;;;;5.55;3.10;;;13.30;30.10;;;;;;5055276;28;20761;-86
2021/01/21 13:57:14;;;;;;;7.45;3.30;;;13.10;32.90;;;;;;5054247;28;20194;-87
2021/01/21 13:59:40;;;;;;;9.40;3.75;;;12.90;34.30;;;;;;5057517;28;20307;-87
2021/01/21 14:02:07;;;;;;;5.60;3.10;;;12.50;35.50;;;;;;5070573;28;20209;-87
2021/01/21 14:04:34;;;;;;;9.15;3.30;;;12.10;36.10;;;;;;5055357;28;20231;-86
2021/01/21 14:07:00;;;;;;;10.18;3.22;;;11.90;36.80;;;;;;5053592;28;20193;-87
2021/01/21 14:09:26;;;;;;;10.63;3.13;;;11.60;38.00;;;;;;5060994;28;20213;-86
2021/01/21 14:12:48;;;;;;;7.38;2.67;;;11.40;38.00;;;;;;5042020;28;20193;-85
2021/01/21 14:15:16;;;;;;;9.45;3.08;;;11.40;39.50;;;;;;5066657;28;20228;-86
2021/01/21 14:17:42;;;;;;;13.10;3.38;;;11.10;39.10;;;;;;5060224;28;20185;-85
2021/01/21 14:20:09;;;;;;;7.53;3.33;;;10.90;39.90;;;;;;5059136;28;20701;-87
2021/01/21 14:22:35;;;;;;;7.10;3.17;;;10.90;40.00;;;;;;5058483;28;20248;-84
2021/01/21 14:25:02;;;;;;;9.38;3.05;;;10.90;41.40;;;;;;5061186;28;20252;-84
2021/01/21 14:27:28;;;;;;;7.63;3.35;;;10.80;41.00;;;;;;5057284;28;20194;-84
2021/01/21 14:29:55;;;;;;;9.45;3.42;;;10.70;40.60;;;;;;5059865;28;20225;-87
2021/01/21 14:32:24;;;;;;;5.25;3.00;;;10.60;41.30;;;;;;5053697;28;20212;-85
2021/01/21 14:34:50;;;;;;;9.35;3.50;;;10.50;42.00;;;;;;5058449;28;20228;-86
2021/01/21 14:40:40;;;;;;;6.97;2.80;;;10.20;41.90;;;;;;5059766;28;20687;-86
2021/01/21 14:46:29;;;;;;;7.28;2.28;;;10.00;42.30;;;;;;5058624;28;20355;-87
2021/01/21 14:56:23;;;;;;;5.70;2.03;;;9.70;43.50;;;;;;5059220;28;20317;-85
2021/01/21 14:58:50;;;;;;;7.80;2.45;;;9.60;44.10;;;;;;5057428;28;20206;-87
2021/01/21 15:01:17;;;;;;;5.35;2.40;;;9.50;44.40;;;;;;5065333;28;20209;-91
2021/01/21 15:03:43;;;;;;;4.57;1.75;;;9.50;44.30;;;;;;5058664;28;20210;-86
2021/01/21 15:06:27;;;;;;;4.28;1.98;;;9.40;44.20;;;;;;5053274;28;20198;-84
2021/01/21 15:08:53;;;;;;;7.22;2.90;;;9.40;47.90;;;;;;5063149;28;20197;-86
2021/01/21 15:11:34;;;;;;;2.97;2.30;;;9.30;46.00;;;;;;5065763;28;20555;-85
2021/01/21 15:14:02;;;;;;;5.03;2.30;;;9.20;46.20;;;;;;5064531;28;20232;-84
2021/01/21 15:16:28;;;;;;;11.25;3.38;;;9.10;47.40;;;;;;5055145;28;20237;-91
2021/01/21 15:18:56;;;;;;;9.20;2.95;;;9.00;47.50;;;;;;5051911;28;20202;-86
2021/01/21 15:21:23;;;;;;;10.45;2.70;;;9.00;47.60;;;;;;5058903;28;20244;-88
2021/01/21 15:23:50;;;;;;;10.15;2.83;;;9.00;47.50;;;;;;5065670;28;20190;-88
2021/01/21 15:26:16;;;;;;;11.77;4.57;;;8.90;47.50;;;;;;5059005;28;20294;-85
2021/01/21 15:28:43;;;;;;;5.05;2.97;;;8.80;47.40;;;;;;5057552;28;20198;-87
2021/01/21 15:31:12;;;;;;;11.00;3.08;;;8.70;47.30;;;;;;5054575;28;20199;-86
2021/01/21 15:33:39;;;;;;;5.30;2.45;;;8.60;47.20;;;;;;5051748;28;20198;-86
2021/01/21 15:36:06;;;;;;;9.27;2.92;;;8.50;47.20;;;;;;5051624;28;20226;-85
2021/01/21 15:38:35;;;;;;;4.93;2.35;;;8.40;47.00;;;;;;5048421;28;20202;-85
2021/01/21 15:41:01;;;;;;;7.03;2.25;;;8.30;49.30;;;;;;5057496;28;20221;-87
2021/01/21 15:43:28;;;;;;;5.90;2.70;;;8.30;49.40;;;;;;5055410;28;20436;-85
2021/01/21 15:45:55;;;;;;;5.13;3.10;;;8.20;50.00;;;;;;5046329;28;20230;-87
2021/01/21 15:48:23;;;;;;;5.95;2.50;;;8.20;53.60;;;;;;5042946;28;20392;-84
2021/01/21 15:50:49;;;;;;;9.52;3.20;;;8.10;51.80;;;;;;5049516;28;20527;-85
2021/01/21 15:53:16;;;;;;;12.60;3.00;;;7.90;51.80;;;;;;5047803;28;20198;-86
2021/01/21 15:55:42;;;;;;;8.70;3.17;;;7.80;53.10;;;;;;5044139;28;20214;-90
2021/01/21 15:58:10;;;;;;;11.50;3.40;;;7.70;53.70;;;;;;5057771;28;20195;-88
2021/01/21 16:00:36;;;;;;;9.40;3.40;;;7.70;53.20;;;;;;5046646;28;20233;-84
2021/01/21 16:03:03;;;;;;;10.27;3.25;;;7.60;55.20;;;;;;5043375;28;20202;-89
2021/01/21 16:05:30;;;;;;;9.02;3.75;;;7.50;55.80;;;;;;5042712;28;20229;-86
2021/01/21 16:07:57;;;;;;;16.58;4.30;;;7.50;56.10;;;;;;5047232;28;20190;-91
2021/01/21 16:10:23;;;;;;;6.53;3.90;;;7.40;55.80;;;;;;5043105;28;20621;-87
2021/01/21 16:12:50;;;;;;;12.20;3.75;;;7.30;56.70;;;;;;5046999;28;20194;-88
2021/01/21 16:15:16;;;;;;;11.98;4.22;;;7.10;56.20;;;;;;5056068;28;20232;-83
2021/01/21 16:17:43;;;;;;;15.98;5.38;;;7.10;58.90;;;;;;5040093;28;20775;-86
2021/01/21 16:20:10;;;;;;;9.63;3.90;;;7.10;60.40;;;;;;5044258;28;20226;-88
2021/01/21 16:22:39;;;;;;;18.40;4.30;;;7.20;60.50;;;;;;5054746;28;20205;-82
2021/01/21 16:25:09;;;;;;;14.47;4.63;;;7.30;59.40;;;;;;5018777;28;20858;-89